createdAt,value
2023-04-01T00:00:18.322Z,38.76
2023-04-01T00:01:18.295Z,38.73
2023-04-01T00:02:18.296Z,38.74
2023-04-01T00:03:18.354Z,38.73
2023-04-01T00:04:18.282Z,38.70
2023-04-01T00:05:18.277Z,38.71
2023-04-01T00:06:18.260Z,38.70
2023-04-01T00:07:18.236Z,38.68
2023-04-01T00:08:18.219Z,38.72
2023-04-01T00:09:18.215Z,38.68
2023-04-01T00:10:18.223Z,38.65
2023-04-01T00:11:18.244Z,38.71
2023-04-01T00:12:18.202Z,38.69
2023-04-01T00:13:18.213Z,38.69
2023-04-01T00:14:18.205Z,38.68
2023-04-01T00:15:18.191Z,38.66
2023-04-01T00:16:22.347Z,38.64
2023-04-01T00:17:19.042Z,38.64
2023-04-01T00:18:18.187Z,38.66
2023-04-01T00:19:18.197Z,38.66
2023-04-01T00:20:18.193Z,38.69
2023-04-01T00:21:18.186Z,38.62
2023-04-01T00:22:18.165Z,38.63
2023-04-01T00:23:18.169Z,38.65
2023-04-01T00:24:18.156Z,38.64
2023-04-01T00:25:18.144Z,38.61
2023-04-01T00:26:18.144Z,38.63
2023-04-01T00:27:18.102Z,38.60
2023-04-01T00:28:18.132Z,38.61
2023-04-01T00:29:18.130Z,38.60
2023-04-01T00:30:18.086Z,38.59
2023-04-01T00:31:18.185Z,38.56
2023-04-01T00:32:18.091Z,38.57
2023-04-01T00:33:18.096Z,38.54
2023-04-01T00:34:18.060Z,38.49
2023-04-01T00:35:18.110Z,38.56
2023-04-01T00:36:18.114Z,38.54
2023-04-01T00:37:18.063Z,38.48
2023-04-01T00:38:18.030Z,38.53
2023-04-01T00:39:18.078Z,38.49
2023-04-01T00:40:18.051Z,38.52
2023-04-01T00:41:18.105Z,38.48
2023-04-01T00:42:18.037Z,38.47
2023-04-01T00:43:18.039Z,38.51
2023-04-01T00:44:18.029Z,38.47
2023-04-01T00:45:18.015Z,38.46
2023-04-01T00:46:18.043Z,38.44
2023-04-01T00:47:17.971Z,38.47
2023-04-01T00:48:17.968Z,38.46
2023-04-01T00:49:17.965Z,38.44
2023-04-01T00:50:17.974Z,38.48
2023-04-01T00:51:17.997Z,38.47
2023-04-01T00:52:17.958Z,38.39
2023-04-01T00:53:17.979Z,38.42
2023-04-01T00:54:17.927Z,38.41
2023-04-01T00:55:17.965Z,38.39
2023-04-01T00:56:17.943Z,38.39
2023-04-01T00:57:17.967Z,38.46
2023-04-01T00:58:17.925Z,38.44
2023-04-01T00:59:17.932Z,38.37
2023-04-01T01:00:17.903Z,38.37
2023-04-01T01:01:17.959Z,38.39
2023-04-01T01:02:17.953Z,38.42
2023-04-01T01:03:17.939Z,38.39
2023-04-01T01:04:17.870Z,38.38
2023-04-01T01:05:17.880Z,38.35
2023-04-01T01:06:17.911Z,38.34
2023-04-01T01:07:17.897Z,38.34
2023-04-01T01:08:17.866Z,38.35
2023-04-01T01:09:17.869Z,38.39
2023-04-01T01:10:17.883Z,38.33
2023-04-01T01:11:18.047Z,38.33
2023-04-01T01:12:17.912Z,38.32
2023-04-01T01:13:17.946Z,38.28
2023-04-01T01:14:17.949Z,38.30
2023-04-01T01:15:17.916Z,38.30
2023-04-01T01:16:18.006Z,38.33
2023-04-01T01:17:17.976Z,38.32
2023-04-01T01:18:17.982Z,38.34
2023-04-01T01:19:17.972Z,38.25
2023-04-01T01:20:26.087Z,38.25
2023-04-01T01:21:18.987Z,38.24
2023-04-01T01:22:17.986Z,38.29
2023-04-01T01:23:17.964Z,38.24
2023-04-01T01:24:17.980Z,38.25
2023-04-01T01:25:17.986Z,38.22
2023-04-01T01:26:17.942Z,38.22
2023-04-01T01:27:17.932Z,38.24
2023-04-01T01:28:17.932Z,38.22
2023-04-01T01:29:17.910Z,38.24
2023-04-01T01:30:17.927Z,38.22
2023-04-01T01:31:17.947Z,38.19
2023-04-01T01:32:17.923Z,38.17
2023-04-01T01:33:17.898Z,38.21
2023-04-01T01:34:17.867Z,38.22
2023-04-01T01:35:17.881Z,38.19
2023-04-01T01:36:17.972Z,38.22
2023-04-01T01:37:17.866Z,38.18
2023-04-01T01:38:17.864Z,38.21
2023-04-01T01:39:17.877Z,38.14
2023-04-01T01:40:17.900Z,38.20
2023-04-01T01:41:17.830Z,38.16
2023-04-01T01:42:17.815Z,38.19
2023-04-01T01:43:17.835Z,38.15
2023-04-01T01:44:17.823Z,38.13
2023-04-01T01:45:17.812Z,38.12
2023-04-01T01:46:17.887Z,38.16
2023-04-01T01:47:17.815Z,38.09
2023-04-01T01:48:17.816Z,38.07
2023-04-01T01:49:17.791Z,38.12
2023-04-01T01:50:17.773Z,38.09
2023-04-01T01:51:17.983Z,38.08
2023-04-01T01:52:17.836Z,38.11
2023-04-01T01:53:17.862Z,38.07
2023-04-01T01:54:17.862Z,38.09
2023-04-01T01:55:17.876Z,38.08
2023-04-01T01:56:17.852Z,38.06
2023-04-01T01:57:17.913Z,38.04
2023-04-01T01:58:17.891Z,38.08
2023-04-01T01:59:17.904Z,38.07
2023-04-01T02:00:17.914Z,38.07
2023-04-01T02:01:17.957Z,38.02
2023-04-01T02:02:17.947Z,38.02
2023-04-01T02:03:17.957Z,38.09
2023-04-01T02:04:18.049Z,38.01
2023-04-01T02:05:17.971Z,38.04
2023-04-01T02:06:18.033Z,38.04
2023-04-01T02:07:18.018Z,37.97
2023-04-01T02:08:18.067Z,38.03
2023-04-01T02:09:18.014Z,38.02
2023-04-01T02:10:18.056Z,37.94
2023-04-01T02:11:18.090Z,37.96
2023-04-01T02:12:18.055Z,37.97
2023-04-01T02:13:18.067Z,38.00
2023-04-01T02:14:18.107Z,37.98
2023-04-01T02:15:18.114Z,37.98
2023-04-01T02:16:18.136Z,37.95
2023-04-01T02:17:18.123Z,37.96
2023-04-01T02:18:18.145Z,37.91
2023-04-01T02:19:18.135Z,37.91
2023-04-01T02:20:18.151Z,37.94
2023-04-01T02:21:18.150Z,37.91
2023-04-01T02:22:18.127Z,37.89
2023-04-01T02:23:18.120Z,37.91
2023-04-01T02:24:18.120Z,37.86
2023-04-01T02:25:18.112Z,37.89
2023-04-01T02:26:18.132Z,37.89
2023-04-01T02:27:18.092Z,37.88
2023-04-01T02:28:18.096Z,37.86
2023-04-01T02:29:18.113Z,37.86
2023-04-01T02:30:18.065Z,37.81
2023-04-01T02:31:18.110Z,37.89
2023-04-01T02:32:18.058Z,37.84
2023-04-01T02:33:18.066Z,37.79
2023-04-01T02:34:18.091Z,37.83
2023-04-01T02:35:18.035Z,37.79
2023-04-01T02:36:18.150Z,37.82
2023-04-01T02:37:18.058Z,37.80
2023-04-01T02:38:18.040Z,37.82
2023-04-01T02:39:18.020Z,37.78
2023-04-01T02:40:18.038Z,37.80
2023-04-01T02:41:18.014Z,37.78
2023-04-01T02:42:18.002Z,37.77
2023-04-01T02:43:17.992Z,37.78
2023-04-01T02:44:18.002Z,37.73
2023-04-01T02:45:17.990Z,37.73
2023-04-01T02:46:18.017Z,37.75
2023-04-01T02:47:17.972Z,37.76
2023-04-01T02:48:17.984Z,37.77
2023-04-01T02:49:17.934Z,37.76
2023-04-01T02:50:17.952Z,37.76
2023-04-01T02:51:18.545Z,37.75
2023-04-01T02:52:17.951Z,37.72
2023-04-01T02:53:17.984Z,37.72
2023-04-01T02:54:17.993Z,37.71
2023-04-01T02:55:18.042Z,37.72
2023-04-01T02:56:18.041Z,37.73
2023-04-01T02:57:18.107Z,37.75
2023-04-01T02:58:18.049Z,37.66
2023-04-01T02:59:18.077Z,37.67
2023-04-01T03:00:18.075Z,37.65
2023-04-01T03:01:18.127Z,37.68
2023-04-01T03:02:18.133Z,37.64
2023-04-01T03:03:18.204Z,37.72
2023-04-01T03:04:18.153Z,37.68
2023-04-01T03:05:18.172Z,37.67
2023-04-01T03:06:18.150Z,37.63
2023-04-01T03:07:18.149Z,37.68
2023-04-01T03:08:18.188Z,37.63
2023-04-01T03:09:18.224Z,37.64
2023-04-01T03:10:18.189Z,37.63
2023-04-01T03:11:18.231Z,37.62
2023-04-01T03:12:18.222Z,37.62
2023-04-01T03:13:18.240Z,37.59
2023-04-01T03:14:18.252Z,37.62
2023-04-01T03:15:18.284Z,37.63
2023-04-01T03:16:18.277Z,37.59
2023-04-01T03:17:18.297Z,37.60
2023-04-01T03:18:18.313Z,37.63
2023-04-01T03:19:18.320Z,37.61
2023-04-01T03:20:20.129Z,37.62
2023-04-01T03:21:18.336Z,37.54
2023-04-01T03:22:18.351Z,37.62
2023-04-01T03:23:18.343Z,37.57
2023-04-01T03:24:18.399Z,37.60
2023-04-01T03:25:18.374Z,37.54
2023-04-01T03:26:18.418Z,37.55
2023-04-01T03:27:18.433Z,37.59
2023-04-01T03:28:18.476Z,37.55
2023-04-01T03:29:18.462Z,37.55
2023-04-01T03:30:18.537Z,37.58
2023-04-01T03:31:18.515Z,37.53
2023-04-01T03:32:18.493Z,37.51
2023-04-01T03:33:18.536Z,37.55
2023-04-01T03:34:18.515Z,37.55
2023-04-01T03:35:18.565Z,37.56
2023-04-01T03:36:18.590Z,37.56
2023-04-01T03:37:18.565Z,37.53
2023-04-01T03:38:18.583Z,37.52
2023-04-01T03:39:18.612Z,37.55
2023-04-01T03:40:18.627Z,37.51
2023-04-01T03:41:18.646Z,37.54
2023-04-01T03:42:18.636Z,37.55
2023-04-01T03:43:18.676Z,37.53
2023-04-01T03:44:18.684Z,37.46
2023-04-01T03:45:18.724Z,37.50
2023-04-01T03:46:18.796Z,37.47
2023-04-01T03:47:18.742Z,37.50
2023-04-01T03:48:18.815Z,37.47
2023-04-01T03:49:18.799Z,37.49
2023-04-01T03:50:18.782Z,37.50
2023-04-01T03:51:18.838Z,37.50
2023-04-01T03:52:18.837Z,37.50
2023-04-01T03:53:18.836Z,37.45
2023-04-01T03:54:18.887Z,37.53
2023-04-01T03:55:18.861Z,37.45
2023-04-01T03:56:18.900Z,37.49
2023-04-01T03:57:18.939Z,37.46
2023-04-01T03:58:18.962Z,37.45
2023-04-01T03:59:18.945Z,37.44
2023-04-01T04:00:18.989Z,37.41
2023-04-01T04:01:19.004Z,37.45
2023-04-01T04:02:19.055Z,37.42
2023-04-01T04:03:19.105Z,37.46
2023-04-01T04:04:19.059Z,37.41
2023-04-01T04:05:19.042Z,37.40
2023-04-01T04:06:19.084Z,37.39
2023-04-01T04:07:19.085Z,37.37
2023-04-01T04:08:19.125Z,37.37
2023-04-01T04:09:19.110Z,37.41
2023-04-01T04:10:19.178Z,37.34
2023-04-01T04:11:19.145Z,37.37
2023-04-01T04:12:19.149Z,37.37
2023-04-01T04:13:19.200Z,37.34
2023-04-01T04:14:19.197Z,37.34
2023-04-01T04:15:19.200Z,37.36
2023-04-01T04:16:19.262Z,37.36
2023-04-01T04:17:19.251Z,37.35
2023-04-01T04:18:19.267Z,37.36
2023-04-01T04:19:19.260Z,37.32
2023-04-01T04:20:19.304Z,37.37
2023-04-01T04:21:19.311Z,37.34
2023-04-01T04:22:19.330Z,37.32
2023-04-01T04:23:19.363Z,37.39
2023-04-01T04:24:19.363Z,37.34
2023-04-01T04:25:19.358Z,37.33
2023-04-01T04:26:19.425Z,37.34
2023-04-01T04:27:19.420Z,37.33
2023-04-01T04:28:19.469Z,37.33
2023-04-01T04:29:19.426Z,37.32
2023-04-01T04:30:19.492Z,37.28
2023-04-01T04:31:19.550Z,37.29
2023-04-01T04:32:19.498Z,37.32
2023-04-01T04:33:19.525Z,37.34
2023-04-01T04:34:19.553Z,37.31
2023-04-01T04:35:19.573Z,37.27
2023-04-01T04:36:19.649Z,37.27
2023-04-01T04:37:19.621Z,37.31
2023-04-01T04:38:19.667Z,37.29
2023-04-01T04:39:19.652Z,37.29
2023-04-01T04:40:19.710Z,37.29
2023-04-01T04:41:19.686Z,37.28
2023-04-01T04:42:19.733Z,37.28
2023-04-01T04:43:19.726Z,37.27
2023-04-01T04:44:19.745Z,37.24
2023-04-01T04:45:19.791Z,37.25
2023-04-01T04:46:19.817Z,37.27
2023-04-01T04:47:19.849Z,37.27
2023-04-01T04:48:20.120Z,37.24
2023-04-01T04:49:19.840Z,37.25
2023-04-01T04:50:19.880Z,37.24
2023-04-01T04:51:19.984Z,37.23
2023-04-01T04:52:19.913Z,37.23
2023-04-01T04:53:19.900Z,37.24
2023-04-01T04:54:19.919Z,37.24
2023-04-01T04:55:19.944Z,37.19
2023-04-01T04:56:19.978Z,37.18
2023-04-01T04:57:20.017Z,37.22
2023-04-01T04:58:19.978Z,37.19
2023-04-01T04:59:20.021Z,37.22
2023-04-01T05:00:20.038Z,37.20
2023-04-01T05:01:20.139Z,37.20
2023-04-01T05:02:20.098Z,37.20
2023-04-01T05:03:20.172Z,37.22
2023-04-01T05:04:20.105Z,37.14
2023-04-01T05:05:20.160Z,37.15
2023-04-01T05:06:22.985Z,37.18
2023-04-01T05:07:20.174Z,37.17
2023-04-01T05:08:20.135Z,37.16
2023-04-01T05:09:20.123Z,37.19
2023-04-01T05:10:20.151Z,37.15
2023-04-01T05:11:20.137Z,37.20
2023-04-01T05:12:20.131Z,37.15
2023-04-01T05:13:20.111Z,37.18
2023-04-01T05:14:20.100Z,37.15
2023-04-01T05:15:20.124Z,37.13
2023-04-01T05:16:20.085Z,37.12
2023-04-01T05:17:20.101Z,37.13
2023-04-01T05:18:20.056Z,37.12
2023-04-01T05:19:20.053Z,37.12
2023-04-01T05:20:20.061Z,37.10
2023-04-01T05:21:20.049Z,37.11
2023-04-01T05:22:20.045Z,37.11
2023-04-01T05:23:20.033Z,37.12
2023-04-01T05:24:20.050Z,37.12
2023-04-01T05:25:20.042Z,37.10
2023-04-01T05:26:20.036Z,37.10
2023-04-01T05:27:20.007Z,37.11
2023-04-01T05:28:20.009Z,37.10
2023-04-01T05:29:19.983Z,37.11
2023-04-01T05:30:20.000Z,37.12
2023-04-01T05:31:19.997Z,37.07
2023-04-01T05:32:20.002Z,37.12
2023-04-01T05:33:19.983Z,37.06
2023-04-01T05:34:19.967Z,37.10
2023-04-01T05:35:19.952Z,37.10
2023-04-01T05:36:19.994Z,37.06
2023-04-01T05:37:19.956Z,37.07
2023-04-01T05:38:19.962Z,37.10
2023-04-01T05:39:19.924Z,37.09
2023-04-01T05:40:19.924Z,37.09
2023-04-01T05:41:19.917Z,37.03
2023-04-01T05:42:19.940Z,37.06
2023-04-01T05:43:19.938Z,37.03
2023-04-01T05:44:19.907Z,37.04
2023-04-01T05:45:19.887Z,37.03
2023-04-01T05:46:19.969Z,37.06
2023-04-01T05:47:19.860Z,37.05
2023-04-01T05:48:19.893Z,37.03
2023-04-01T05:49:19.848Z,37.02
2023-04-01T05:50:19.840Z,37.01
2023-04-01T05:51:19.829Z,37.03
2023-04-01T05:52:19.864Z,37.01
2023-04-01T05:53:19.840Z,37.01
2023-04-01T05:54:19.846Z,36.98
2023-04-01T05:55:19.826Z,36.98
2023-04-01T05:56:19.846Z,36.98
2023-04-01T05:57:19.892Z,37.00
2023-04-01T05:58:19.809Z,37.01
2023-04-01T05:59:19.794Z,37.02
2023-04-01T06:00:19.807Z,37.01
2023-04-01T06:01:19.771Z,36.97
2023-04-01T06:02:19.792Z,37.00
2023-04-01T06:03:19.862Z,36.92
2023-04-01T06:04:19.774Z,36.95
2023-04-01T06:05:19.750Z,36.97
2023-04-01T06:06:19.760Z,36.96
2023-04-01T06:07:19.753Z,36.96
2023-04-01T06:08:20.721Z,36.93
2023-04-01T06:09:19.791Z,36.93
2023-04-01T06:10:19.753Z,36.93
2023-04-01T06:11:19.738Z,36.97
2023-04-01T06:12:19.717Z,36.92
2023-04-01T06:13:19.700Z,36.90
2023-04-01T06:14:19.687Z,36.90
2023-04-01T06:15:19.720Z,36.90
2023-04-01T06:16:19.751Z,36.90
2023-04-01T06:17:19.707Z,36.90
2023-04-01T06:18:19.693Z,36.93
2023-04-01T06:19:19.670Z,36.90
2023-04-01T06:20:19.664Z,36.96
2023-04-01T06:21:19.681Z,36.91
2023-04-01T06:22:19.706Z,36.93
2023-04-01T06:23:19.729Z,36.89
2023-04-01T06:24:19.764Z,36.88
2023-04-01T06:25:19.787Z,36.91
2023-04-01T06:26:19.802Z,36.90
2023-04-01T06:27:19.793Z,36.90
2023-04-01T06:28:19.831Z,36.90
2023-04-01T06:29:19.879Z,36.83
2023-04-01T06:30:19.857Z,36.83
2023-04-01T06:31:19.931Z,36.91
2023-04-01T06:32:19.933Z,36.86
2023-04-01T06:33:19.918Z,36.84
2023-04-01T06:34:19.952Z,36.85
2023-04-01T06:35:19.998Z,36.88
2023-04-01T06:36:19.998Z,36.85
2023-04-01T06:37:19.994Z,36.90
2023-04-01T06:38:20.024Z,36.86
2023-04-01T06:39:20.040Z,36.83
2023-04-01T06:40:20.072Z,36.83
2023-04-01T06:41:20.095Z,36.78
2023-04-01T06:42:20.140Z,36.83
2023-04-01T06:43:20.138Z,36.79
2023-04-01T06:44:20.193Z,36.81
2023-04-01T06:45:20.177Z,36.85
2023-04-01T06:46:20.255Z,36.84
2023-04-01T06:47:20.240Z,36.83
2023-04-01T06:48:20.278Z,36.76
2023-04-01T06:49:20.276Z,36.78
2023-04-01T06:50:20.287Z,36.81
2023-04-01T06:51:20.347Z,36.80
2023-04-01T06:52:20.370Z,36.83
2023-04-01T06:53:20.392Z,36.81
2023-04-01T06:54:20.376Z,36.81
2023-04-01T06:55:22.718Z,36.83
2023-04-01T06:56:20.539Z,36.80
2023-04-01T06:57:20.613Z,36.75
2023-04-01T06:58:20.556Z,36.84
2023-04-01T06:59:20.759Z,36.78
2023-04-01T07:00:20.625Z,36.80
2023-04-01T07:01:20.742Z,36.81
2023-04-01T07:02:20.683Z,36.81
2023-04-01T07:03:20.697Z,36.81
2023-04-01T07:04:20.741Z,36.81
2023-04-01T07:05:20.723Z,36.83
2023-04-01T07:06:20.758Z,36.76
2023-04-01T07:07:20.760Z,36.78
2023-04-01T07:08:20.816Z,36.82
2023-04-01T07:09:20.824Z,36.76
2023-04-01T07:10:20.899Z,36.81
2023-04-01T07:11:20.871Z,36.76
2023-04-01T07:12:20.921Z,36.78
2023-04-01T07:13:20.930Z,36.76
2023-04-01T07:14:20.997Z,36.81
2023-04-01T07:15:20.964Z,36.76
2023-04-01T07:16:21.045Z,36.76
2023-04-01T07:17:21.018Z,36.76
2023-04-01T07:18:21.030Z,36.73
2023-04-01T07:19:21.073Z,36.75
2023-04-01T07:20:21.151Z,36.76
2023-04-01T07:21:21.126Z,36.71
2023-04-01T07:22:21.164Z,36.74
2023-04-01T07:23:21.196Z,36.73
2023-04-01T07:24:21.202Z,36.68
2023-04-01T07:25:21.238Z,36.76
2023-04-01T07:26:21.281Z,36.71
2023-04-01T07:27:21.316Z,36.71
2023-04-01T07:28:21.326Z,36.70
2023-04-01T07:29:21.354Z,36.68
2023-04-01T07:30:21.381Z,36.71
2023-04-01T07:31:21.419Z,36.70
2023-04-01T07:32:21.471Z,36.69
2023-04-01T07:33:21.453Z,36.71
2023-04-01T07:34:21.477Z,36.69
2023-04-01T07:35:21.470Z,36.71
2023-04-01T07:36:21.564Z,36.66
2023-04-01T07:37:21.543Z,36.63
2023-04-01T07:38:21.635Z,36.66
2023-04-01T07:39:21.580Z,36.67
2023-04-01T07:40:21.619Z,36.64
2023-04-01T07:41:21.607Z,36.69
2023-04-01T07:42:21.638Z,36.67
2023-04-01T07:43:21.666Z,36.66
2023-04-01T07:44:21.720Z,36.64
2023-04-01T07:45:21.745Z,36.64
2023-04-01T07:46:21.754Z,36.63
2023-04-01T07:47:21.792Z,36.65
2023-04-01T07:48:21.770Z,36.59
2023-04-01T07:49:21.840Z,36.59
2023-04-01T07:50:21.865Z,36.66
2023-04-01T07:51:21.868Z,36.61
2023-04-01T07:52:21.909Z,36.65
2023-04-01T07:53:21.908Z,36.60
2023-04-01T07:54:21.965Z,36.59
2023-04-01T07:55:21.971Z,36.63
2023-04-01T07:56:22.020Z,36.63
2023-04-01T07:57:22.039Z,36.63
2023-04-01T07:58:22.065Z,36.57
2023-04-01T07:59:22.111Z,36.59
2023-04-01T08:00:22.133Z,36.60
2023-04-01T08:01:22.149Z,36.62
2023-04-01T08:02:22.290Z,36.60
2023-04-01T08:03:22.330Z,36.58
2023-04-01T08:04:22.259Z,36.57
2023-04-01T08:05:22.272Z,36.55
2023-04-01T08:06:22.283Z,36.58
2023-04-01T08:07:22.283Z,36.55
2023-04-01T08:08:22.303Z,36.55
2023-04-01T08:09:22.334Z,36.57
2023-04-01T08:10:22.333Z,36.58
2023-04-01T08:11:22.353Z,36.55
2023-04-01T08:12:22.360Z,36.54
2023-04-01T08:13:22.402Z,36.57
2023-04-01T08:14:22.396Z,36.57
2023-04-01T08:15:22.431Z,36.56
2023-04-01T08:16:22.482Z,36.56
2023-04-01T08:17:22.560Z,36.54
2023-04-01T08:18:22.498Z,36.51
2023-04-01T08:19:22.484Z,36.54
2023-04-01T08:20:22.568Z,36.55
2023-04-01T08:21:22.549Z,36.54
2023-04-01T08:22:22.570Z,36.51
2023-04-01T08:23:22.633Z,36.50
2023-04-01T08:24:22.897Z,36.50
2023-04-01T08:25:22.645Z,36.50
2023-04-01T08:26:22.675Z,36.54
2023-04-01T08:27:22.701Z,36.50
2023-04-01T08:28:22.704Z,36.47
2023-04-01T08:29:22.698Z,36.47
2023-04-01T08:30:22.818Z,36.50
2023-04-01T08:31:22.788Z,36.47
2023-04-01T08:32:22.827Z,36.50
2023-04-01T08:33:22.800Z,36.48
2023-04-01T08:34:22.852Z,36.47
2023-04-01T08:35:22.867Z,36.44
2023-04-01T08:36:23.036Z,36.47
2023-04-01T08:37:22.934Z,36.45
2023-04-01T08:38:22.933Z,36.46
2023-04-01T08:39:22.928Z,36.49
2023-04-01T08:40:22.951Z,36.44
2023-04-01T08:41:22.989Z,36.45
2023-04-01T08:42:23.014Z,36.42
2023-04-01T08:43:23.020Z,36.45
2023-04-01T08:44:23.024Z,36.45
2023-04-01T08:45:23.076Z,36.46
2023-04-01T08:46:23.156Z,36.45
2023-04-01T08:47:23.081Z,36.40
2023-04-01T08:48:23.141Z,36.45
2023-04-01T08:49:23.168Z,36.43
2023-04-01T08:50:23.197Z,36.41
2023-04-01T08:51:23.180Z,36.45
2023-04-01T08:52:23.233Z,36.44
2023-04-01T08:53:23.242Z,36.43
2023-04-01T08:54:23.246Z,36.44
2023-04-01T08:55:23.260Z,36.44
2023-04-01T08:56:23.281Z,36.40
2023-04-01T08:57:23.314Z,36.42
2023-04-01T08:58:23.314Z,36.44
2023-04-01T08:59:23.359Z,36.40
2023-04-01T09:00:23.355Z,36.44
2023-04-01T09:01:23.368Z,36.41
2023-04-01T09:02:23.455Z,36.45
2023-04-01T09:03:23.492Z,36.44
2023-04-01T09:04:23.436Z,36.40
2023-04-01T09:05:23.458Z,36.44
2023-04-01T09:06:23.454Z,36.42
2023-04-01T09:07:23.507Z,36.40
2023-04-01T09:08:23.515Z,36.43
2023-04-01T09:09:23.553Z,36.43
2023-04-01T09:10:23.569Z,36.38
2023-04-01T09:11:23.570Z,36.36
2023-04-01T09:12:23.574Z,36.39
2023-04-01T09:13:23.612Z,36.38
2023-04-01T09:14:23.649Z,36.34
2023-04-01T09:15:23.671Z,36.36
2023-04-01T09:16:23.763Z,36.38
2023-04-01T09:17:23.734Z,36.36
2023-04-01T09:18:23.710Z,36.43
2023-04-01T09:19:23.695Z,36.35
2023-04-01T09:20:23.721Z,36.36
2023-04-01T09:21:23.750Z,36.39
2023-04-01T09:22:23.801Z,36.35
2023-04-01T09:23:23.762Z,36.35
2023-04-01T09:24:23.803Z,36.33
2023-04-01T09:25:23.816Z,36.33
2023-04-01T09:26:23.823Z,36.34
2023-04-01T09:27:23.861Z,36.34
2023-04-01T09:28:23.864Z,36.33
2023-04-01T09:29:23.868Z,36.36
2023-04-01T09:30:23.910Z,36.36
2023-04-01T09:31:24.957Z,36.33
2023-04-01T09:32:23.945Z,36.34
2023-04-01T09:33:23.958Z,36.31
2023-04-01T09:34:23.966Z,36.34
2023-04-01T09:35:23.984Z,36.34
2023-04-01T09:36:24.021Z,36.33
2023-04-01T09:37:24.039Z,36.33
2023-04-01T09:38:24.038Z,36.33
2023-04-01T09:39:24.073Z,36.33
2023-04-01T09:40:24.056Z,36.33
2023-04-01T09:41:24.081Z,36.30
2023-04-01T09:42:24.106Z,36.31
2023-04-01T09:43:24.137Z,36.33
2023-04-01T09:44:24.133Z,36.38
2023-04-01T09:45:24.144Z,36.31
2023-04-01T09:46:24.163Z,36.33
2023-04-01T09:47:24.165Z,36.26
2023-04-01T09:48:24.170Z,36.35
2023-04-01T09:49:24.217Z,36.28
2023-04-01T09:50:24.300Z,36.30
2023-04-01T09:51:24.202Z,36.30
2023-04-01T09:52:24.257Z,36.28
2023-04-01T09:53:24.251Z,36.31
2023-04-01T09:54:24.308Z,36.31
2023-04-01T09:55:24.293Z,36.28
2023-04-01T09:56:24.294Z,36.29
2023-04-01T09:57:24.338Z,36.26
2023-04-01T09:58:24.322Z,36.29
2023-04-01T09:59:24.336Z,36.24
2023-04-01T10:00:24.359Z,36.28
2023-04-01T10:01:24.384Z,36.27
2023-04-01T10:02:24.379Z,36.29
2023-04-01T10:03:24.414Z,36.25
2023-04-01T10:04:24.433Z,36.28
2023-04-01T10:05:24.477Z,36.28
2023-04-01T10:06:24.451Z,36.24
2023-04-01T10:07:24.457Z,36.29
2023-04-01T10:08:24.499Z,36.25
2023-04-01T10:09:24.509Z,36.27
2023-04-01T10:10:24.531Z,36.24
2023-04-01T10:11:24.521Z,36.23
2023-04-01T10:12:24.515Z,36.24
2023-04-01T10:13:24.525Z,36.24
2023-04-01T10:14:24.548Z,36.23
2023-04-01T10:15:24.569Z,36.28
2023-04-01T10:16:24.609Z,36.28
2023-04-01T10:17:24.607Z,36.26
2023-04-01T10:18:24.630Z,36.24
2023-04-01T10:19:24.641Z,36.28
2023-04-01T10:20:24.656Z,36.24
2023-04-01T10:21:24.655Z,36.25
2023-04-01T10:22:24.653Z,36.19
2023-04-01T10:23:24.674Z,36.24
2023-04-01T10:24:24.672Z,36.21
2023-04-01T10:25:24.693Z,36.21
2023-04-01T10:26:24.690Z,36.24
2023-04-01T10:27:24.704Z,36.24
2023-04-01T10:28:24.710Z,36.25
2023-04-01T10:29:24.711Z,36.23
2023-04-01T10:30:24.748Z,36.27
2023-04-01T10:31:24.775Z,36.25
2023-04-01T10:32:24.751Z,36.23
2023-04-01T10:33:24.733Z,36.21
2023-04-01T10:34:24.776Z,36.21
2023-04-01T10:35:24.795Z,36.24
2023-04-01T10:36:24.840Z,36.19
2023-04-01T10:37:24.810Z,36.19
2023-04-01T10:38:26.864Z,36.18
2023-04-01T10:39:25.742Z,36.21
2023-04-01T10:40:24.784Z,36.19
2023-04-01T10:41:24.749Z,36.20
2023-04-01T10:42:24.787Z,36.24
2023-04-01T10:43:24.767Z,36.20
2023-04-01T10:44:24.738Z,36.23
2023-04-01T10:45:24.751Z,36.20
2023-04-01T10:46:24.792Z,36.18
2023-04-01T10:47:24.714Z,36.16
2023-04-01T10:48:24.721Z,36.22
2023-04-01T10:49:24.732Z,36.20
2023-04-01T10:50:24.746Z,36.15
2023-04-01T10:51:24.705Z,36.17
2023-04-01T10:52:24.690Z,36.19
2023-04-01T10:53:24.692Z,36.20
2023-04-01T10:54:24.719Z,36.20
2023-04-01T10:55:24.687Z,36.24
2023-04-01T10:56:24.660Z,36.19
2023-04-01T10:57:24.727Z,36.20
2023-04-01T10:58:24.641Z,36.18
2023-04-01T10:59:24.645Z,36.16
2023-04-01T11:00:24.685Z,36.24
2023-04-01T11:01:24.706Z,36.17
2023-04-01T11:02:24.668Z,36.20
2023-04-01T11:03:24.698Z,36.13
2023-04-01T11:04:24.609Z,36.13
2023-04-01T11:05:24.607Z,36.18
2023-04-01T11:06:24.614Z,36.16
2023-04-01T11:07:24.615Z,36.15
2023-04-01T11:08:24.610Z,36.15
2023-04-01T11:09:24.630Z,36.19
2023-04-01T11:10:24.575Z,36.15
2023-04-01T11:11:24.564Z,36.17
2023-04-01T11:12:24.568Z,36.14
2023-04-01T11:13:24.572Z,36.15
2023-04-01T11:14:24.573Z,36.15
2023-04-01T11:15:24.525Z,36.13
2023-04-01T11:16:24.582Z,36.13
2023-04-01T11:17:24.559Z,36.12
2023-04-01T11:18:24.527Z,36.09
2023-04-01T11:19:24.485Z,36.12
2023-04-01T11:20:24.507Z,36.12
2023-04-01T11:21:26.605Z,36.13
2023-04-01T11:22:24.477Z,36.13
2023-04-01T11:23:24.476Z,36.13
2023-04-01T11:24:24.446Z,36.09
2023-04-01T11:25:24.465Z,36.11
2023-04-01T11:26:24.440Z,36.08
2023-04-01T11:27:24.496Z,36.10
2023-04-01T11:28:24.453Z,36.12
2023-04-01T11:29:24.448Z,36.11
2023-04-01T11:30:24.405Z,36.16
2023-04-01T11:31:24.476Z,36.13
2023-04-01T11:32:24.476Z,36.16
2023-04-01T11:33:25.949Z,36.13
2023-04-01T11:34:24.414Z,36.14
2023-04-01T11:35:24.430Z,36.13
2023-04-01T11:36:24.461Z,36.13
2023-04-01T11:37:24.436Z,36.13
2023-04-01T11:38:24.483Z,36.15
2023-04-01T11:39:24.461Z,36.15
2023-04-01T11:40:24.466Z,36.14
2023-04-01T11:41:24.468Z,36.12
2023-04-01T11:42:24.465Z,36.10
2023-04-01T11:43:32.928Z,36.10
2023-04-01T11:44:25.475Z,36.09
2023-04-01T11:45:24.431Z,36.11
2023-04-01T11:46:24.439Z,36.11
2023-04-01T11:47:24.466Z,36.11
2023-04-01T11:48:24.441Z,36.09
2023-04-01T11:49:24.428Z,36.11
2023-04-01T11:50:24.413Z,36.11
2023-04-01T11:51:24.390Z,36.08
2023-04-01T11:52:24.379Z,36.07
2023-04-01T11:53:24.391Z,36.05
2023-04-01T11:54:24.381Z,36.05
2023-04-01T11:55:24.377Z,36.08
2023-04-01T11:56:24.357Z,36.08
2023-04-01T11:57:24.430Z,36.09
2023-04-01T11:58:24.379Z,36.08
2023-04-01T11:59:24.358Z,36.07
2023-04-01T12:00:24.332Z,36.13
2023-04-01T12:01:24.321Z,36.12
2023-04-01T12:02:24.380Z,36.08
2023-04-01T12:03:24.429Z,36.07
2023-04-01T12:04:24.327Z,36.08
2023-04-01T12:05:24.292Z,36.07
2023-04-01T12:06:24.306Z,36.07
2023-04-01T12:07:24.296Z,36.13
2023-04-01T12:08:24.283Z,36.12
2023-04-01T12:09:24.281Z,36.08
2023-04-01T12:10:24.292Z,36.08
2023-04-01T12:11:24.265Z,36.10
2023-04-01T12:12:24.239Z,36.10
2023-04-01T12:13:24.266Z,36.15
2023-04-01T12:14:24.252Z,36.13
2023-04-01T12:15:24.220Z,36.07
2023-04-01T12:16:24.282Z,36.11
2023-04-01T12:17:24.241Z,36.07
2023-04-01T12:18:24.207Z,36.03
2023-04-01T12:19:24.188Z,36.07
2023-04-01T12:20:24.200Z,36.07
2023-04-01T12:21:24.213Z,36.15
2023-04-01T12:22:24.184Z,36.13
2023-04-01T12:23:24.189Z,36.13
2023-04-01T12:24:24.146Z,36.07
2023-04-01T12:25:24.158Z,36.11
2023-04-01T12:26:24.175Z,36.08
2023-04-01T12:27:24.147Z,36.15
2023-04-01T12:28:24.206Z,36.12
2023-04-01T12:29:24.177Z,36.10
2023-04-01T12:30:24.182Z,36.12
2023-04-01T12:31:24.148Z,36.11
2023-04-01T12:32:24.230Z,36.15
2023-04-01T12:33:24.132Z,36.13
2023-04-01T12:34:24.140Z,36.13
2023-04-01T12:35:24.155Z,36.13
2023-04-01T12:36:24.176Z,36.10
2023-04-01T12:37:24.184Z,36.12
2023-04-01T12:38:24.158Z,36.12
2023-04-01T12:39:24.160Z,36.11
2023-04-01T12:40:24.172Z,36.12
2023-04-01T12:41:24.132Z,36.12
2023-04-01T12:42:24.163Z,36.12
2023-04-01T12:43:24.148Z,36.10
2023-04-01T12:44:24.118Z,36.08
2023-04-01T12:45:24.115Z,36.09
2023-04-01T12:46:24.178Z,36.11
2023-04-01T12:47:24.238Z,36.12
2023-04-01T12:48:24.136Z,36.09
2023-04-01T12:49:24.102Z,36.09
2023-04-01T12:50:24.126Z,36.07
2023-04-01T12:51:24.124Z,36.08
2023-04-01T12:52:24.111Z,36.07